Time;durP1;ratioP1;P1;durP2;ratioP2;P2;SDS_P1;SDS_P2;PMS_P1;PMS_P2;Temp;Humidity;BMP_temperature;BMP_pressure;BME280_temperature;BME280_humidity;BME280_pressure;Samples;Min_cycle;Max_cycle;Signal;HPM_P1;HPM_P2
2022/05/06 00:01:43;;;;;;;1.40;1.30;;;;;;;14.32;100.00;95519.97;4992565;28;20204;-56
2022/05/06 00:04:09;;;;;;;2.10;1.43;;;;;;;14.35;100.00;95518.34;4992614;28;20202;-56
2022/05/06 00:06:34;;;;;;;1.40;1.30;;;;;;;14.35;100.00;95510.88;4991779;28;20184;-55
2022/05/06 00:09:00;;;;;;;2.00;1.80;;;;;;;14.30;100.00;95519.63;4992401;28;20219;-53
2022/05/06 00:11:25;;;;;;;2.97;2.00;;;;;;;14.17;100.00;95517.91;4992341;28;20255;-56
2022/05/06 00:13:52;;;;;;;2.40;1.60;;;;;;;13.96;100.00;95512.81;4992221;28;20199;-51
2022/05/06 00:16:22;;;;;;;2.00;1.60;;;;;;;13.68;100.00;95486.69;4992408;28;20206;-58
2022/05/06 00:18:48;;;;;;;4.17;1.63;;;;;;;13.70;100.00;95478.81;4992724;28;20227;-49
2022/05/06 00:21:13;;;;;;;5.50;1.80;;;;;;;13.56;100.00;95461.81;4992440;28;20239;-47
2022/05/06 00:23:39;;;;;;;2.87;1.70;;;;;;;14.36;100.00;95441.00;4992463;28;20213;-48
2022/05/06 00:26:05;;;;;;;2.40;1.30;;;;;;;18.58;100.00;95410.44;4992254;28;20286;-45
2022/05/06 00:28:30;;;;;;;2.50;1.50;;;;;;;21.84;100.00;95360.25;4992263;28;20191;-47
2022/05/06 00:30:56;;;;;;;1.83;1.53;;;;;;;26.39;100.00;95366.13;4992217;28;20186;-45
2022/05/06 00:33:24;;;;;;;1.40;1.30;;;;;;;22.70;100.00;95426.81;4992423;28;20202;-62
2022/05/06 00:35:53;;;;;;;2.30;1.33;;;;;;;18.57;100.00;95473.28;4992405;28;20689;-53
2022/05/06 00:38:19;;;;;;;2.33;1.50;;;;;;;18.37;100.00;95489.47;4991962;28;20194;-55
2022/05/06 00:40:44;;;;;;;2.53;1.60;;;;;;;18.45;100.00;95484.44;4992055;28;20605;-53
2022/05/06 00:43:10;;;;;;;3.07;2.00;;;;;;;18.32;100.00;95497.56;4991847;28;20191;-52
2022/05/06 00:45:52;;;;;;;5.30;2.67;;;;;;;18.43;100.00;95509.03;4991882;28;20197;-53
2022/05/06 00:48:19;;;;;;;6.27;2.03;;;;;;;18.42;100.00;95522.06;4992128;28;20201;-51
2022/05/06 00:50:45;;;;;;;3.43;1.67;;;;;;;18.05;100.00;95511.94;4991790;28;20213;-44
2022/05/06 00:53:11;;;;;;;2.80;1.70;;;;;;;18.33;100.00;95512.91;4991879;28;20203;-50
2022/05/06 00:55:37;;;;;;;2.77;1.50;;;;;;;18.51;100.00;95513.06;4991647;28;20231;-58
2022/05/06 00:58:06;;;;;;;2.77;1.50;;;;;;;19.86;100.00;95538.59;4991803;28;20195;-59
2022/05/06 01:00:32;;;;;;;4.97;1.83;;;;;;;19.34;100.00;95538.75;4991801;28;20218;-59
2022/05/06 01:02:57;;;;;;;2.60;1.40;;;;;;;19.02;100.00;95536.41;4991906;28;20191;-59
2022/05/06 01:05:23;;;;;;;2.67;1.67;;;;;;;18.79;100.00;95531.34;4991611;28;20197;-59
2022/05/06 01:07:50;;;;;;;3.53;2.00;;;;;;;18.73;100.00;95533.19;4991927;28;20231;-59
2022/05/06 01:10:17;;;;;;;2.83;1.83;;;;;;;19.66;100.00;95538.22;4992037;28;20218;-46
2022/05/06 01:12:42;;;;;;;5.60;1.87;;;;;;;24.86;100.00;95493.44;4993011;28;20251;-59
2022/05/06 01:15:34;;;;;;;2.93;1.80;;;;;;;15.69;100.00;95503.00;4991705;28;20222;-60
2022/05/06 01:18:00;;;;;;;2.50;1.60;;;;;;;15.81;100.00;95470.03;4989599;28;20219;-58
2022/05/06 01:20:26;;;;;;;2.00;1.40;;;;;;;15.08;100.00;95461.69;4994758;28;20226;-59
2022/05/06 01:22:54;;;;;;;4.33;1.67;;;;;;;15.19;100.00;95458.69;4994866;28;20196;-59
2022/05/06 01:25:20;;;;;;;2.67;1.67;;;;;;;15.19;100.00;95456.69;4995013;28;20207;-59
2022/05/06 01:28:00;;;;;;;3.20;1.53;;;;;;;14.80;100.00;95456.88;4995054;28;20230;-47
2022/05/06 01:30:35;;;;;;;3.20;1.57;;;;;;;14.62;100.00;95444.72;4995316;28;20265;-44
2022/05/06 01:33:06;;;;;;;2.47;1.70;;;;;;;14.60;100.00;95434.16;4994850;28;20201;-46
2022/05/06 01:35:44;;;;;;;3.37;1.70;;;;;;;14.52;100.00;95432.78;4994937;28;20216;-48
2022/05/06 01:38:11;;;;;;;2.50;1.80;;;;;;;14.56;100.00;95438.97;4994787;28;20194;-46
2022/05/06 01:40:42;;;;;;;2.43;2.00;;;;;;;14.49;100.00;95430.88;4994397;28;20262;-47
2022/05/06 01:43:12;;;;;;;2.20;1.97;;;;;;;14.32;100.00;95426.56;4994724;28;20195;-47
2022/05/06 01:45:40;;;;;;;2.60;2.03;;;;;;;14.41;100.00;95418.50;4994618;28;20197;-63
2022/05/06 01:48:08;;;;;;;2.10;1.77;;;;;;;14.48;100.00;95428.56;4995672;28;20200;-79
2022/05/06 01:50:36;;;;;;;2.90;1.60;;;;;;;14.37;100.00;95433.50;4994683;28;20198;-49
2022/05/06 01:53:01;;;;;;;3.17;1.90;;;;;;;14.62;100.00;95431.75;4994566;28;20277;-51
2022/05/06 01:55:27;;;;;;;2.90;1.70;;;;;;;14.31;100.00;95430.50;4994720;28;20294;-49
2022/05/06 01:57:52;;;;;;;4.67;3.47;;;;;;;14.30;100.00;95433.66;4994834;28;20187;-54
2022/05/06 02:00:18;;;;;;;5.73;3.10;;;;;;;14.32;100.00;95429.31;4994533;28;20193;-52
2022/05/06 02:02:43;;;;;;;5.60;4.23;;;;;;;14.21;100.00;95427.97;4994250;28;20195;-55
2022/05/06 02:05:18;;;;;;;4.50;3.07;;;;;;;14.20;100.00;95429.91;4994422;28;20286;-50
2022/05/06 02:07:50;;;;;;;2.80;2.30;;;;;;;14.15;100.00;95416.69;4994315;28;20190;-73
2022/05/06 02:10:17;;;;;;;3.03;2.13;;;;;;;14.12;100.00;95417.53;4994346;28;20199;-74
2022/05/06 02:12:44;;;;;;;3.33;2.40;;;;;;;14.11;100.00;95420.72;4994007;28;20187;-73
2022/05/06 02:15:11;;;;;;;2.50;2.30;;;;;;;14.11;100.00;95427.00;4994608;28;20244;-72
2022/05/06 02:17:37;;;;;;;3.43;2.50;;;;;;;14.22;100.00;95427.56;4994174;28;20210;-71
2022/05/06 02:20:04;;;;;;;3.37;2.57;;;;;;;14.28;100.00;95425.84;4994268;28;20184;-70
2022/05/06 02:22:29;;;;;;;3.33;2.63;;;;;;;14.27;100.00;95426.31;4994119;28;20240;-49
2022/05/06 02:24:55;;;;;;;3.13;2.60;;;;;;;14.19;100.00;95428.38;4994287;28;20202;-48
2022/05/06 02:27:21;;;;;;;5.07;2.83;;;;;;;14.17;100.00;95425.28;4994281;28;20190;-54
2022/05/06 02:33:16;;;;;;;4.00;2.60;;;;;;;14.07;100.00;95415.31;4995407;28;20221;-54
2022/05/06 02:35:16;;;;;;;2.93;2.20;;;;;;;13.99;100.00;95413.13;4987592;28;20201;-53
2022/05/06 02:37:41;;;;;;;3.50;2.23;;;;;;;14.04;100.00;95407.13;4993756;28;20197;-54
2022/05/06 02:40:09;;;;;;;4.07;2.30;;;;;;;14.04;100.00;95415.38;4993679;28;20194;-53
2022/05/06 02:42:35;;;;;;;3.60;2.40;;;;;;;13.99;100.00;95413.88;4994088;28;20183;-53
2022/05/06 02:45:00;;;;;;;3.30;2.10;;;;;;;13.98;100.00;95415.09;4994070;28;20282;-49
2022/05/06 02:47:25;;;;;;;3.50;2.20;;;;;;;13.97;100.00;95410.03;4993930;28;20226;-45
2022/05/06 02:49:52;;;;;;;3.23;2.40;;;;;;;13.91;100.00;95411.75;4993757;28;20185;-46
2022/05/06 02:52:18;;;;;;;3.87;2.80;;;;;;;13.77;100.00;95406.53;5010098;28;20194;-45
2022/05/06 02:54:44;;;;;;;5.57;3.70;;;;;;;13.89;100.00;95408.63;4993694;28;20202;-48
2022/05/06 02:57:09;;;;;;;3.40;3.00;;;;;;;13.87;100.00;95406.31;4993715;28;20186;-46
2022/05/06 02:59:34;;;;;;;3.27;2.70;;;;;;;13.83;100.00;95404.81;4993559;28;20195;-53
2022/05/06 03:02:00;;;;;;;2.97;2.40;;;;;;;13.89;100.00;95409.41;4993443;28;20214;-61
2022/05/06 03:04:25;;;;;;;2.83;2.30;;;;;;;13.89;100.00;95403.13;4993443;28;20240;-74
2022/05/06 03:06:52;;;;;;;2.60;2.40;;;;;;;13.82;100.00;95398.56;4994741;28;20186;-74
2022/05/06 03:09:17;;;;;;;3.63;2.30;;;;;;;13.81;100.00;95402.53;4993667;28;20183;-72
2022/05/06 03:11:43;;;;;;;3.30;2.40;;;;;;;13.83;100.00;95394.63;4993597;28;20281;-74
2022/05/06 03:14:08;;;;;;;3.47;2.33;;;;;;;13.74;100.00;95394.44;4993460;28;20199;-73
2022/05/06 03:16:34;;;;;;;2.60;2.40;;;;;;;13.70;100.00;95391.00;4993488;28;20221;-73
2022/05/06 03:19:00;;;;;;;2.37;2.17;;;;;;;13.72;100.00;95394.06;4993386;28;20260;-44
2022/05/06 03:21:27;;;;;;;2.87;2.50;;;;;;;13.77;100.00;95396.31;4993201;28;20215;-49
2022/05/06 03:23:52;;;;;;;2.87;2.40;;;;;;;13.70;100.00;95382.75;4992878;28;20289;-47
2022/05/06 03:26:17;;;;;;;3.60;2.30;;;;;;;13.70;100.00;95381.97;4993022;28;20211;-48
2022/05/06 03:28:44;;;;;;;2.40;2.20;;;;;;;13.78;100.00;95381.41;4993216;28;20199;-46
2022/05/06 03:31:11;;;;;;;5.73;4.70;;;;;;;13.71;100.00;95386.25;4992908;28;20198;-48
2022/05/06 03:33:37;;;;;;;5.27;3.93;;;;;;;13.68;100.00;95392.59;4992804;28;20234;-46
2022/05/06 03:36:03;;;;;;;3.10;2.80;;;;;;;13.66;100.00;95378.53;4993048;28;20226;-59
2022/05/06 03:38:28;;;;;;;3.53;2.80;;;;;;;13.69;100.00;95372.97;4993105;28;20201;-58
2022/05/06 03:40:55;;;;;;;5.07;3.20;;;;;;;13.76;100.00;95375.56;4992672;28;20218;-52
2022/05/06 03:43:20;;;;;;;3.57;2.30;;;;;;;13.70;100.00;95374.53;4992731;28;20229;-53
2022/05/06 03:45:46;;;;;;;2.57;2.37;;;;;;;13.71;100.00;95375.28;4992841;28;20233;-51
2022/05/06 03:48:12;;;;;;;3.63;2.70;;;;;;;13.74;100.00;95369.72;4992575;28;20201;-51
2022/05/06 03:53:23;;;;;;;3.73;2.67;;;;;;;13.75;100.00;95376.75;4993890;28;20274;-51
2022/05/06 03:55:49;;;;;;;3.43;2.47;;;;;;;13.61;100.00;95374.31;4992937;28;20194;-71
2022/05/06 03:58:14;;;;;;;2.60;2.40;;;;;;;13.66;100.00;95379.28;4992750;28;20202;-72
2022/05/06 04:00:40;;;;;;;3.20;2.60;;;;;;;13.64;100.00;95386.41;4992428;28;20221;-73
2022/05/06 04:03:05;;;;;;;4.43;2.70;;;;;;;13.61;100.00;95392.72;4993417;28;20222;-72
2022/05/06 04:05:32;;;;;;;4.30;2.60;;;;;;;13.59;100.00;95393.19;4992411;28;20187;-71
2022/05/06 04:07:58;;;;;;;4.33;2.90;;;;;;;13.62;100.00;95395.06;4992036;28;20226;-72
2022/05/06 04:10:23;;;;;;;7.53;4.83;;;;;;;13.57;100.00;95401.03;4992531;28;20234;-70
2022/05/06 04:12:49;;;;;;;7.57;5.27;;;;;;;13.53;100.00;95397.59;4992673;28;20219;-59
2022/05/06 04:15:14;;;;;;;7.27;2.90;;;;;;;13.52;100.00;95401.53;4992734;28;20304;-47
2022/05/06 04:17:39;;;;;;;3.77;3.10;;;;;;;13.55;100.00;95647.63;4992214;28;20248;-44
2022/05/06 04:25:33;;;;;;;3.33;3.03;;;;;;;14.24;100.00;95367.47;4993556;28;20200;-46
2022/05/06 04:27:58;;;;;;;3.63;2.93;;;;;;;14.30;100.00;95371.25;4992408;28;20170;-44
2022/05/06 04:30:24;;;;;;;3.50;2.90;;;;;;;14.29;100.00;95371.69;4992252;28;20196;-44
2022/05/06 04:32:49;;;;;;;3.47;2.87;;;;;;;14.27;100.00;95374.84;4992018;28;20260;-43
2022/05/06 04:35:15;;;;;;;3.20;2.83;;;;;;;13.91;100.00;95379.56;4991985;28;20207;-70
2022/05/06 04:37:40;;;;;;;5.27;3.13;;;;;;;13.96;100.00;95376.31;4992194;28;20189;-70
2022/05/06 04:40:07;;;;;;;5.20;3.30;;;;;;;14.17;100.00;95370.34;4992068;28;20198;-70
2022/05/06 04:42:32;;;;;;;3.77;3.30;;;;;;;14.34;100.00;95376.66;4992096;28;20206;-70
2022/05/06 04:44:57;;;;;;;3.77;3.47;;;;;;;14.32;100.00;95387.31;4991673;28;20200;-70
2022/05/06 04:47:23;;;;;;;3.83;3.13;;;;;;;14.34;100.00;95385.69;4992113;28;20251;-70
2022/05/06 04:49:48;;;;;;;3.20;2.80;;;;;;;13.93;100.00;95393.63;4991794;28;20198;-45
2022/05/06 04:52:13;;;;;;;4.00;3.20;;;;;;;14.21;100.00;95384.78;4991798;28;20201;-45
2022/05/06 04:54:39;;;;;;;4.07;3.67;;;;;;;14.26;100.00;95384.31;4998059;28;20237;-51
2022/05/06 04:57:05;;;;;;;4.00;3.60;;;;;;;13.86;100.00;95377.31;4998572;28;20186;-52
2022/05/06 04:59:30;;;;;;;5.30;3.20;;;;;;;13.82;100.00;95382.09;4998459;28;20194;-51
2022/05/06 05:01:55;;;;;;;4.67;3.10;;;;;;;13.86;100.00;95382.81;4998160;28;20214;-51
2022/05/06 05:04:27;;;;;;;4.10;3.37;;;;;;;13.90;100.00;95388.22;4998404;28;20187;-52
2022/05/06 05:06:54;;;;;;;4.37;3.67;;;;;;;13.93;100.00;95396.38;4998270;28;20220;-51
2022/05/06 05:09:20;;;;;;;3.87;3.47;;;;;;;13.96;100.00;95392.78;4998128;28;20210;-47
2022/05/06 05:11:45;;;;;;;6.33;3.70;;;;;;;13.94;100.00;95403.41;4998219;28;20187;-59
2022/05/06 05:14:10;;;;;;;4.80;3.40;;;;;;;13.97;100.00;95404.53;4998103;28;20261;-59
2022/05/06 05:16:36;;;;;;;4.10;3.63;;;;;;;13.99;100.00;95407.63;4998241;28;20233;-59
2022/05/06 05:19:01;;;;;;;4.27;3.60;;;;;;;13.99;100.00;95408.41;4997927;28;20215;-59
2022/05/06 05:21:26;;;;;;;5.90;3.97;;;;;;;14.01;100.00;95411.50;4997857;28;20223;-59
2022/05/06 05:23:52;;;;;;;4.00;3.40;;;;;;;14.00;100.00;95412.72;4997635;28;20200;-59
2022/05/06 05:26:17;;;;;;;3.93;3.63;;;;;;;14.06;100.00;95411.00;4997926;28;20212;-59
2022/05/06 05:28:42;;;;;;;5.50;3.70;;;;;;;14.15;100.00;95411.22;4997802;28;20221;-52
2022/05/06 05:31:08;;;;;;;5.03;3.90;;;;;;;14.19;100.00;95422.88;4998136;28;20205;-49
2022/05/06 05:33:33;;;;;;;4.73;4.00;;;;;;;14.29;100.00;95427.41;4998015;28;20193;-45
2022/05/06 05:35:59;;;;;;;5.00;4.30;;;;;;;14.32;100.00;95426.56;4997918;28;20217;-45
2022/05/06 05:38:24;;;;;;;11.23;4.33;;;;;;;14.41;100.00;95424.00;4997310;28;20254;-44
2022/05/06 05:40:49;;;;;;;5.60;4.53;;;;;;;14.45;100.00;95421.94;4997599;28;20213;-45
2022/05/06 05:48:43;;;;;;;4.97;4.47;;;;;;;14.47;100.00;95422.31;4998711;28;20184;-46
2022/05/06 05:51:08;;;;;;;5.43;4.30;;;;;;;14.46;100.00;95426.22;4997368;28;20278;-46
2022/05/06 05:53:34;;;;;;;5.60;4.70;;;;;;;14.47;100.00;95427.78;4997692;28;20182;-43
2022/05/06 05:55:59;;;;;;;5.90;4.70;;;;;;;14.51;100.00;95428.50;4997307;28;20215;-45
2022/05/06 05:58:25;;;;;;;5.73;4.70;;;;;;;14.56;100.00;95430.72;4997784;28;20192;-44
2022/05/06 06:00:50;;;;;;;5.97;4.70;;;;;;;14.61;100.00;95432.19;4997395;28;20211;-46
2022/05/06 06:03:16;;;;;;;4.87;4.37;;;;;;;14.59;100.00;95429.88;4997436;28;20188;-53
2022/05/06 06:05:41;;;;;;;6.37;4.33;;;;;;;14.59;100.00;95435.38;4993975;28;20202;-47
2022/05/06 06:08:07;;;;;;;5.47;4.77;;;;;;;14.50;100.00;95434.41;4993968;28;20199;-44
2022/05/06 06:10:33;;;;;;;6.90;4.93;;;;;;;14.51;100.00;95438.69;5010533;28;20206;-44
2022/05/06 06:13:01;;;;;;;4.73;4.17;;;;;;;14.44;100.00;95445.13;4995134;28;20193;-47
2022/05/06 06:15:26;;;;;;;4.00;3.60;;;;;;;14.22;100.00;95444.03;4994086;28;20220;-46
2022/05/06 06:17:52;;;;;;;4.43;3.70;;;;;;;14.22;100.00;95448.75;4993811;28;20249;-44
2022/05/06 06:20:17;;;;;;;4.20;3.80;;;;;;;14.25;100.00;95448.69;4993683;28;20184;-44
2022/05/06 06:22:42;;;;;;;3.40;3.10;;;;;;;14.17;100.00;95441.75;4993649;28;20206;-46
2022/05/06 06:25:08;;;;;;;4.10;3.43;;;;;;;14.21;100.00;95453.47;4994051;28;20194;-50
2022/05/06 06:27:34;;;;;;;5.17;4.30;;;;;;;14.30;100.00;95445.44;4994136;28;20246;-50
2022/05/06 06:29:59;;;;;;;3.20;2.90;;;;;;;14.37;100.00;95445.28;4993826;28;20192;-48
2022/05/06 06:32:25;;;;;;;4.27;3.23;;;;;;;14.51;100.00;95450.47;4993260;28;20202;-47
2022/05/06 06:34:52;;;;;;;4.03;3.10;;;;;;;14.57;100.00;95446.00;4993514;28;20207;-48
2022/05/06 06:37:19;;;;;;;4.40;2.80;;;;;;;14.46;100.00;95453.72;4993771;28;20223;-49
2022/05/06 06:39:44;;;;;;;4.10;3.00;;;;;;;14.57;100.00;95446.00;4993649;28;20179;-48
2022/05/06 06:42:10;;;;;;;3.67;3.00;;;;;;;14.68;100.00;95451.28;4993679;28;20216;-69
2022/05/06 06:44:36;;;;;;;3.87;3.30;;;;;;;14.68;100.00;95454.03;4993590;28;20187;-47
2022/05/06 06:47:08;;;;;;;5.10;3.30;;;;;;;14.68;100.00;95449.28;4993336;28;20219;-52
2022/05/06 06:49:33;;;;;;;7.93;6.10;;;;;;;14.65;100.00;95450.16;4993444;28;20191;-49
2022/05/06 06:51:58;;;;;;;4.20;3.53;;;;;;;14.68;100.00;95449.28;4993444;28;20216;-50
2022/05/06 06:54:24;;;;;;;3.47;3.17;;;;;;;14.70;100.00;95441.38;4993611;28;20273;-50
2022/05/06 06:56:49;;;;;;;3.93;3.40;;;;;;;14.84;100.00;95448.53;4993573;28;20188;-47
2022/05/06 06:59:14;;;;;;;4.70;3.30;;;;;;;14.80;100.00;95443.13;4994934;28;20256;-67
2022/05/06 07:01:40;;;;;;;4.07;3.47;;;;;;;14.83;100.00;95455.25;4993300;28;20290;-64
2022/05/06 07:04:05;;;;;;;6.87;3.70;;;;;;;14.79;100.00;95449.81;4993639;28;20202;-44
2022/05/06 07:12:06;;;;;;;5.90;3.77;;;;;;;14.69;100.00;95467.34;4978745;28;20210;-44
2022/05/06 07:14:33;;;;;;;4.87;4.07;;;;;;;14.77;100.00;95452.22;4993475;28;20283;-46
2022/05/06 07:16:59;;;;;;;12.03;10.20;;;;;;;14.75;100.00;95462.84;4991950;28;20270;-60
2022/05/06 07:19:24;;;;;;;10.30;7.90;;;;;;;14.71;100.00;95459.44;4993220;28;20184;-53
2022/05/06 07:21:50;;;;;;;6.93;5.30;;;;;;;14.87;100.00;95462.22;4992837;28;20219;-54
2022/05/06 07:24:16;;;;;;;4.93;4.40;;;;;;;14.84;100.00;95468.56;4992815;28;20318;-56
2022/05/06 07:26:42;;;;;;;4.17;3.43;;;;;;;14.67;100.00;95463.44;4992963;28;20195;-55
2022/05/06 07:29:07;;;;;;;5.13;3.80;;;;;;;14.53;100.00;95469.28;4993119;28;20294;-56
2022/05/06 07:31:32;;;;;;;3.70;3.37;;;;;;;14.48;100.00;95472.53;4993283;28;20191;-57
2022/05/06 07:33:58;;;;;;;3.93;3.07;;;;;;;14.58;100.00;95474.28;4992760;28;20191;-57
2022/05/06 07:36:23;;;;;;;3.60;3.10;;;;;;;14.61;100.00;95465.19;4992874;28;20220;-67
2022/05/06 07:38:49;;;;;;;4.97;3.23;;;;;;;14.70;100.00;95470.84;4992507;28;20192;-60
2022/05/06 07:41:15;;;;;;;4.53;3.50;;;;;;;14.73;100.00;95468.03;4992518;28;20270;-61
2022/05/06 07:43:40;;;;;;;5.30;4.70;;;;;;;14.74;100.00;95475.06;4992511;28;20243;-61
2022/05/06 07:46:09;;;;;;;7.57;5.20;;;;;;;14.79;100.00;95463.56;4992758;28;20204;-60
2022/05/06 07:48:34;;;;;;;7.17;6.30;;;;;;;14.70;100.00;95463.38;4992870;28;20188;-60
2022/05/06 07:50:59;;;;;;;6.57;5.67;;;;;;;14.73;100.00;95476.28;4992838;28;20184;-61
2022/05/06 07:53:25;;;;;;;5.23;4.60;;;;;;;14.76;100.00;95478.19;4992469;28;20192;-61
2022/05/06 07:55:50;;;;;;;4.47;3.70;;;;;;;14.69;100.00;95480.31;4992661;28;20195;-57
2022/05/06 07:58:15;;;;;;;4.97;4.43;;;;;;;14.58;100.00;95488.78;4992632;28;20188;-51
2022/05/06 08:00:40;;;;;;;5.87;4.20;;;;;;;14.64;100.00;95487.06;4992440;28;20239;-49
2022/05/06 08:05:56;;;;;;;6.60;4.37;;;;;;;14.63;100.00;95485.53;4993837;28;20198;-53
2022/05/06 08:08:22;;;;;;;5.80;5.20;;;;;;;14.54;100.00;95492.81;4992353;28;20214;-51
2022/05/06 08:10:47;;;;;;;7.40;6.60;;;;;;;14.75;100.00;95487.59;4992493;28;20188;-49
2022/05/06 08:13:12;;;;;;;7.23;5.87;;;;;;;14.87;100.00;95484.19;4992420;28;20199;-63
2022/05/06 08:15:38;;;;;;;7.73;5.77;;;;;;;14.65;100.00;95490.59;4992426;28;20184;-57
2022/05/06 08:18:03;;;;;;;5.80;5.30;;;;;;;14.59;100.00;95484.84;4992356;28;20262;-60
2022/05/06 08:20:28;;;;;;;6.83;5.83;;;;;;;14.67;100.00;95490.94;4992314;28;20259;-58
2022/05/06 08:22:54;;;;;;;7.70;6.07;;;;;;;14.77;100.00;95485.22;4992277;28;20188;-57
2022/05/06 08:25:19;;;;;;;6.10;5.43;;;;;;;14.85;100.00;95478.34;4992582;28;20180;-58
2022/05/06 08:27:44;;;;;;;6.70;5.67;;;;;;;14.88;100.00;95480.25;4991766;28;20239;-58
2022/05/06 08:30:12;;;;;;;7.03;5.70;;;;;;;14.83;100.00;95485.47;4992198;28;20186;-59
2022/05/06 08:32:38;;;;;;;7.23;6.17;;;;;;;14.69;100.00;95489.34;4992210;28;20205;-53
2022/05/06 08:35:04;;;;;;;6.30;5.70;;;;;;;14.67;100.00;95486.22;4991721;28;20230;-55
2022/05/06 08:37:46;;;;;;;11.80;10.03;;;;;;;14.75;100.00;95487.59;4992125;28;20195;-51
2022/05/06 08:40:37;;;;;;;7.87;7.07;;;;;;;14.67;100.00;95488.97;4992235;28;20186;-51
2022/05/06 08:43:04;;;;;;;8.80;7.90;;;;;;;14.85;100.00;95489.34;4989987;28;20215;-53
2022/05/06 08:51:00;;;;;;;8.27;7.47;;;;;;;14.55;100.00;95503.38;4993228;28;20293;-45
2022/05/06 08:53:29;;;;;;;8.20;7.40;;;;;;;14.51;100.00;95499.94;4991782;28;20225;-58
2022/05/06 08:55:56;;;;;;;12.00;8.93;;;;;;;14.83;100.00;95488.97;4991785;28;20187;-58
2022/05/06 08:58:23;;;;;;;9.17;8.23;;;;;;;14.83;100.00;95494.47;4991729;28;20187;-59
2022/05/06 09:00:50;;;;;;;9.23;8.33;;;;;;;14.62;100.00;95503.22;4991730;28;20222;-58
2022/05/06 09:03:17;;;;;;;10.00;9.00;;;;;;;14.58;100.00;95497.03;4991890;28;20191;-58
2022/05/06 09:05:49;;;;;;;10.80;9.70;;;;;;;14.52;100.00;95500.69;4992002;28;20187;-57
2022/05/06 09:08:14;;;;;;;11.73;10.13;;;;;;;14.52;100.00;95501.47;5007985;28;20195;-49
2022/05/06 09:10:39;;;;;;;11.53;10.23;;;;;;;14.25;100.00;95508.34;4991831;28;20265;-57
2022/05/06 09:13:05;;;;;;;11.33;10.00;;;;;;;14.30;100.00;95505.88;4991724;28;20190;-58
2022/05/06 09:18:22;;;;;;;19.57;17.13;;;;;;;14.47;100.00;95499.25;4992495;28;20215;-58
2022/05/06 09:20:49;;;;;;;15.60;12.97;;;;;;;14.56;100.00;95504.13;4991688;28;20212;-59
2022/05/06 09:23:33;;;;;;;14.73;11.60;;;;;;;14.52;100.00;95512.47;4991629;28;20245;-59
2022/05/06 09:25:59;;;;;;;15.10;12.80;;;;;;;14.51;100.00;95508.19;4991417;28;20269;-54
2022/05/06 09:28:32;;;;;;;15.17;12.17;;;;;;;14.48;100.00;95508.25;4991494;28;20188;-51
2022/05/06 09:31:00;;;;;;;15.00;12.57;;;;;;;14.39;100.00;95502.56;4991297;28;20203;-58
2022/05/06 09:33:28;;;;;;;21.80;15.87;;;;;;;14.48;100.00;95500.78;4991227;28;20282;-59
2022/05/06 09:35:54;;;;;;;15.27;12.83;;;;;;;14.54;100.00;95493.59;4991738;28;20226;-58
2022/05/06 09:38:21;;;;;;;16.57;14.70;;;;;;;14.40;100.00;95488.41;4991382;28;20188;-59
2022/05/06 09:40:47;;;;;;;17.17;15.40;;;;;;;14.37;100.00;95491.22;4993255;28;20297;-58
2022/05/06 09:43:19;;;;;;;17.87;16.03;;;;;;;14.36;100.00;95489.66;4994787;28;20330;-58
2022/05/06 09:45:46;;;;;;;20.60;16.03;;;;;;;14.23;100.00;95494.25;4995092;28;20215;-63
2022/05/06 09:48:13;;;;;;;18.03;14.93;;;;;;;14.16;100.00;95486.16;4994643;28;20250;-64
2022/05/06 09:50:40;;;;;;;18.00;16.07;;;;;;;14.25;100.00;95492.66;4994614;28;20204;-64
2022/05/06 09:53:09;;;;;;;20.73;17.20;;;;;;;14.26;100.00;95488.69;4994349;28;20258;-64
2022/05/06 09:55:39;;;;;;;20.30;18.20;;;;;;;14.22;100.00;95489.97;4994567;28;20248;-63
2022/05/06 09:58:06;;;;;;;19.50;17.03;;;;;;;14.16;100.00;95483.41;4994485;28;20184;-64
2022/05/06 10:00:34;;;;;;;20.27;17.50;;;;;;;14.08;100.00;95488.25;4994410;28;20183;-64
2022/05/06 10:03:03;;;;;;;21.57;18.50;;;;;;;14.30;100.00;95483.91;4994290;28;20199;-64
2022/05/06 10:05:29;;;;;;;22.73;19.40;;;;;;;14.23;100.00;95478.56;4993997;28;20184;-59
2022/05/06 10:07:58;;;;;;;22.67;20.03;;;;;;;14.08;100.00;95477.28;4994295;28;20179;-62
2022/05/06 10:10:28;;;;;;;22.83;20.33;;;;;;;14.08;100.00;95474.53;4994452;28;20187;-63
2022/05/06 10:12:58;;;;;;;21.67;19.20;;;;;;;14.05;100.00;95466.34;4995489;28;20172;-62
2022/05/06 10:15:27;;;;;;;21.97;18.80;;;;;;;14.07;100.00;95467.50;4995293;28;20190;-63
2022/05/06 10:17:53;;;;;;;20.77;18.67;;;;;;;14.05;100.00;95461.63;4994178;28;20210;-62
2022/05/06 10:20:41;;;;;;;21.53;19.30;;;;;;;13.98;100.00;95463.75;4994333;28;20179;-63
2022/05/06 10:23:11;;;;;;;23.13;19.97;;;;;;;14.13;100.00;95454.78;4987611;28;20214;-63
2022/05/06 10:25:40;;;;;;;22.70;19.90;;;;;;;13.96;100.00;95458.69;4993914;28;20195;-62
2022/05/06 10:34:08;;;;;;;23.63;20.90;;;;;;;13.85;100.00;95458.13;4995234;28;20194;-61
2022/05/06 10:36:45;;;;;;;24.70;21.53;;;;;;;14.25;100.00;95442.41;4993667;28;20188;-61
2022/05/06 10:39:37;;;;;;;25.63;20.97;;;;;;;14.23;100.00;95453.03;4993716;28;20195;-61
2022/05/06 10:42:07;;;;;;;23.07;20.67;;;;;;;14.09;100.00;95451.34;4991769;28;20228;-54
2022/05/06 10:44:36;;;;;;;22.40;19.97;;;;;;;13.79;100.00;95454.31;4993864;28;20230;-52
2022/05/06 10:47:23;;;;;;;23.57;20.57;;;;;;;14.00;100.00;95453.91;4993533;28;20192;-55
2022/05/06 10:49:52;;;;;;;24.70;21.40;;;;;;;13.97;100.00;95454.75;4986316;28;20202;-54
2022/05/06 10:52:18;;;;;;;22.70;20.37;;;;;;;13.93;100.00;95454.03;4993380;28;20188;-55
2022/05/06 10:54:58;;;;;;;23.17;19.97;;;;;;;14.06;100.00;95457.69;4993550;28;20199;-55
2022/05/06 10:57:25;;;;;;;22.63;19.50;;;;;;;14.00;100.00;95453.91;4993567;28;20187;-56
2022/05/06 10:59:52;;;;;;;22.80;19.80;;;;;;;13.75;100.00;95452.81;4993408;28;20188;-54
2022/05/06 11:02:20;;;;;;;22.27;19.87;;;;;;;13.88;100.00;95451.78;4993437;28;20214;-64
2022/05/06 11:04:55;;;;;;;22.23;19.93;;;;;;;14.00;100.00;95453.91;4993380;28;20200;-67
2022/05/06 11:07:22;;;;;;;21.77;19.47;;;;;;;13.66;100.00;95452.63;4993456;28;20210;-63
2022/05/06 11:09:47;;;;;;;22.63;19.70;;;;;;;13.74;100.00;95463.06;4993298;28;20195;-63
2022/05/06 11:12:33;;;;;;;22.43;20.13;;;;;;;13.91;100.00;95459.16;4993085;28;20285;-64
2022/05/06 11:15:02;;;;;;;23.70;19.87;;;;;;;13.85;100.00;95452.63;4992813;28;20290;-64
2022/05/06 11:17:27;;;;;;;22.90;19.87;;;;;;;13.57;100.00;95464.16;4992999;28;20285;-52
2022/05/06 11:19:53;;;;;;;23.07;20.40;;;;;;;13.72;100.00;95454.44;4993686;28;20232;-60
2022/05/06 11:22:20;;;;;;;22.57;20.10;;;;;;;14.01;100.00;95449.94;4993553;28;20275;-60
2022/05/06 11:24:46;;;;;;;22.83;20.40;;;;;;;14.09;100.00;95440.34;4992839;28;20204;-61
2022/05/06 11:27:17;;;;;;;22.40;19.70;;;;;;;14.07;100.00;95439.25;4992761;28;20196;-62
2022/05/06 11:29:49;;;;;;;23.40;20.90;;;;;;;14.14;100.00;95447.34;4992985;28;20196;-62
2022/05/06 11:32:15;;;;;;;22.87;20.43;;;;;;;13.89;100.00;95447.84;4993128;28;20218;-61
2022/05/06 11:34:47;;;;;;;24.10;21.00;;;;;;;14.04;100.00;95443.63;4993181;28;20226;-60
2022/05/06 11:37:28;;;;;;;23.83;20.77;;;;;;;13.82;100.00;95450.72;4992791;28;20242;-63
2022/05/06 11:40:18;;;;;;;23.47;20.37;;;;;;;13.98;100.00;95448.03;4992556;28;20189;-59
2022/05/06 11:42:42;;;;;;;23.43;20.47;;;;;;;13.95;100.00;95435.16;4993547;28;20238;-59
2022/05/06 11:48:04;;;;;;;25.77;20.90;;;;;;;14.26;100.00;95431.00;4993906;28;20277;-61
2022/05/06 11:50:29;;;;;;;22.27;19.63;;;;;;;14.62;100.00;95423.53;4992850;28;20187;-61
2022/05/06 11:52:58;;;;;;;22.77;19.93;;;;;;;14.39;100.00;95426.38;4992740;28;20195;-58
2022/05/06 11:55:24;;;;;;;22.80;19.77;;;;;;;14.33;100.00;95432.81;4992601;28;20202;-56
2022/05/06 11:57:50;;;;;;;21.93;19.33;;;;;;;14.40;100.00;95422.47;4992299;28;20188;-55
2022/05/06 12:00:15;;;;;;;22.20;19.23;;;;;;;14.49;100.00;95425.38;4992609;28;20196;-53
2022/05/06 12:02:51;;;;;;;20.30;18.20;;;;;;;14.10;100.00;95436.44;4991795;28;20326;-55
2022/05/06 12:05:17;;;;;;;21.50;19.20;;;;;;;14.22;100.00;95435.81;4992690;28;20231;-52